sensor_id;sensor_type;location;lat;lon;timestamp;pressure;altitude;pressure_sealevel;temperature;humidity
63808;BME280;49961;43.970;22.868;2023-07-29T00:00:59;101070.72;;;19.85;100.00
63808;BME280;49961;43.970;22.868;2023-07-29T00:02:01;101111.56;;;20.09;100.00
63808;BME280;49961;43.970;22.868;2023-07-29T00:03:01;101105.16;;;20.09;100.00
63808;BME280;49961;43.970;22.868;2023-07-29T00:04:02;101078.94;;;19.88;100.00
63808;BME280;49961;43.970;22.868;2023-07-29T00:05:03;101120.28;;;20.11;100.00
63808;BME280;49961;43.970;22.868;2023-07-29T00:06:03;101098.16;;;19.90;100.00
63808;BME280;49961;43.970;22.868;2023-07-29T00:07:04;101112.03;;;20.08;100.00
63808;BME280;49961;43.970;22.868;2023-07-29T00:08:05;101119.81;;;20.13;100.00
63808;BME280;49961;43.970;22.868;2023-07-29T00:09:06;101043.56;;;19.67;100.00
63808;BME280;49961;43.970;22.868;2023-07-29T00:10:07;101114.44;;;20.15;100.00
63808;BME280;49961;43.970;22.868;2023-07-29T00:11:07;101103.41;;;20.11;100.00
63808;BME280;49961;43.970;22.868;2023-07-29T00:12:08;101116.31;;;20.18;100.00
63808;BME280;49961;43.970;22.868;2023-07-29T00:13:08;101115.03;;;20.19;100.00
63808;BME280;49961;43.970;22.868;2023-07-29T00:14:09;101111.63;;;20.15;100.00
63808;BME280;49961;43.970;22.868;2023-07-29T00:15:09;101083.13;;;19.78;100.00
63808;BME280;49961;43.970;22.868;2023-07-29T00:16:10;101117.56;;;20.02;100.00
63808;BME280;49961;43.970;22.868;2023-07-29T00:17:10;101119.00;;;19.98;100.00
63808;BME280;49961;43.970;22.868;2023-07-29T00:18:11;101128.03;;;20.02;100.00
63808;BME280;49961;43.970;22.868;2023-07-29T00:19:11;101093.56;;;19.78;100.00
63808;BME280;49961;43.970;22.868;2023-07-29T00:20:11;101123.09;;;19.82;100.00
63808;BME280;49961;43.970;22.868;2023-07-29T00:21:12;101050.41;;;19.37;100.00
63808;BME280;49961;43.970;22.868;2023-07-29T00:22:12;101075.53;;;19.55;100.00
63808;BME280;49961;43.970;22.868;2023-07-29T00:23:13;101118.22;;;19.83;100.00
63808;BME280;49961;43.970;22.868;2023-07-29T00:24:13;101124.16;;;19.85;100.00
63808;BME280;49961;43.970;22.868;2023-07-29T00:25:14;101048.75;;;19.31;100.00
63808;BME280;49961;43.970;22.868;2023-07-29T00:26:14;101042.06;;;19.28;100.00
63808;BME280;49961;43.970;22.868;2023-07-29T00:27:14;101102.81;;;19.78;100.00
63808;BME280;49961;43.970;22.868;2023-07-29T00:28:15;101123.34;;;19.84;100.00
63808;BME280;49961;43.970;22.868;2023-07-29T00:29:15;101115.19;;;19.86;100.00
63808;BME280;49961;43.970;22.868;2023-07-29T00:30:16;101112.31;;;19.81;100.00
63808;BME280;49961;43.970;22.868;2023-07-29T00:31:16;101110.94;;;19.76;100.00
63808;BME280;49961;43.970;22.868;2023-07-29T00:32:17;101108.13;;;19.76;100.00
63808;BME280;49961;43.970;22.868;2023-07-29T00:33:17;101105.31;;;19.76;100.00
63808;BME280;49961;43.970;22.868;2023-07-29T00:34:18;101109.38;;;19.75;100.00
63808;BME280;49961;43.970;22.868;2023-07-29T00:35:19;101106.88;;;19.77;100.00
63808;BME280;49961;43.970;22.868;2023-07-29T00:36:20;101074.38;;;19.47;100.00
63808;BME280;49961;43.970;22.868;2023-07-29T00:37:21;101118.13;;;19.77;100.00
63808;BME280;49961;43.970;22.868;2023-07-29T00:38:21;101121.69;;;19.78;100.00
63808;BME280;49961;43.970;22.868;2023-07-29T00:39:21;101116.06;;;19.78;100.00
63808;BME280;49961;43.970;22.868;2023-07-29T00:40:22;101117.16;;;19.80;100.00
63808;BME280;49961;43.970;22.868;2023-07-29T00:41:23;101119.00;;;19.83;100.00
63808;BME280;49961;43.970;22.868;2023-07-29T00:42:25;101121.81;;;19.83;100.00
63808;BME280;49961;43.970;22.868;2023-07-29T00:43:25;101117.94;;;19.81;100.00
63808;BME280;49961;43.970;22.868;2023-07-29T00:44:26;101119.47;;;19.82;100.00
63808;BME280;49961;43.970;22.868;2023-07-29T00:45:26;101116.94;;;19.84;100.00
63808;BME280;49961;43.970;22.868;2023-07-29T00:46:28;101120.56;;;19.84;100.00
63808;BME280;49961;43.970;22.868;2023-07-29T00:47:29;101122.56;;;19.84;100.00
63808;BME280;49961;43.970;22.868;2023-07-29T00:48:29;101115.41;;;19.83;100.00
63808;BME280;49961;43.970;22.868;2023-07-29T00:49:30;101078.72;;;19.63;100.00
63808;BME280;49961;43.970;22.868;2023-07-29T00:50:31;101008.88;;;19.18;100.00
63808;BME280;49961;43.970;22.868;2023-07-29T00:51:32;101115.19;;;19.86;100.00
63808;BME280;49961;43.970;22.868;2023-07-29T00:52:33;101114.72;;;19.88;100.00
63808;BME280;49961;43.970;22.868;2023-07-29T00:53:33;101117.84;;;19.90;100.00
63808;BME280;49961;43.970;22.868;2023-07-29T00:54:34;101115.59;;;19.94;100.00
63808;BME280;49961;43.970;22.868;2023-07-29T00:55:34;101091.53;;;19.93;100.00
63808;BME280;49961;43.970;22.868;2023-07-29T00:56:35;101110.34;;;20.01;100.00
63808;BME280;49961;43.970;22.868;2023-07-29T00:57:35;101109.88;;;20.03;100.00
63808;BME280;49961;43.970;22.868;2023-07-29T00:58:36;101111.16;;;20.02;100.00
63808;BME280;49961;43.970;22.868;2023-07-29T00:59:36;101119.09;;;20.03;100.00
63808;BME280;49961;43.970;22.868;2023-07-29T01:00:37;101008.84;;;19.41;100.00
63808;BME280;49961;43.970;22.868;2023-07-29T01:01:38;101072.16;;;19.80;100.00
63808;BME280;49961;43.970;22.868;2023-07-29T01:02:39;101103.19;;;20.00;100.00
63808;BME280;49961;43.970;22.868;2023-07-29T01:03:39;101107.47;;;19.96;100.00
63808;BME280;49961;43.970;22.868;2023-07-29T01:04:39;101104.94;;;19.98;100.00
63808;BME280;49961;43.970;22.868;2023-07-29T01:08:38;101094.84;;;19.91;100.00
63808;BME280;49961;43.970;22.868;2023-07-29T01:10:07;101097.47;;;19.80;100.00
63808;BME280;49961;43.970;22.868;2023-07-29T01:13:06;101099.59;;;19.71;100.00
63808;BME280;49961;43.970;22.868;2023-07-29T01:15:43;101055.06;;;19.40;100.00
63808;BME280;49961;43.970;22.868;2023-07-29T01:16:52;101093.84;;;19.65;100.00
63808;BME280;49961;43.970;22.868;2023-07-29T01:18:11;101035.16;;;19.29;100.00
63808;BME280;49961;43.970;22.868;2023-07-29T01:20:37;101092.59;;;19.66;100.00
63808;BME280;49961;43.970;22.868;2023-07-29T01:21:39;101089.22;;;19.62;100.00
63808;BME280;49961;43.970;22.868;2023-07-29T01:22:40;101008.19;;;19.08;100.00
63808;BME280;49961;43.970;22.868;2023-07-29T01:23:41;101090.97;;;19.60;100.00
63808;BME280;49961;43.970;22.868;2023-07-29T01:24:41;101097.06;;;19.58;100.00
63808;BME280;49961;43.970;22.868;2023-07-29T01:25:42;101085.53;;;19.56;100.00
63808;BME280;49961;43.970;22.868;2023-07-29T01:26:42;101099.41;;;19.60;100.00
63808;BME280;49961;43.970;22.868;2023-07-29T01:27:45;101090.97;;;19.60;100.00
63808;BME280;49961;43.970;22.868;2023-07-29T01:28:45;101094.06;;;19.62;100.00
63808;BME280;49961;43.970;22.868;2023-07-29T01:29:46;101099.19;;;19.63;100.00
63808;BME280;49961;43.970;22.868;2023-07-29T01:30:49;101065.22;;;19.38;100.00
63808;BME280;49961;43.970;22.868;2023-07-29T01:31:54;101103.75;;;19.61;100.00
63808;BME280;49961;43.970;22.868;2023-07-29T01:33:16;101098.91;;;19.61;100.00
63808;BME280;49961;43.970;22.868;2023-07-29T01:34:32;101105.00;;;19.60;100.00
63808;BME280;49961;43.970;22.868;2023-07-29T01:35:45;101106.16;;;19.53;100.00
63808;BME280;49961;43.970;22.868;2023-07-29T01:36:48;101107.72;;;19.54;100.00
63808;BME280;49961;43.970;22.868;2023-07-29T01:37:55;101098.00;;;19.55;100.00
63808;BME280;49961;43.970;22.868;2023-07-29T01:38:57;101108.31;;;19.58;100.00
63808;BME280;49961;43.970;22.868;2023-07-29T01:40:00;101115.47;;;19.59;100.00
63808;BME280;49961;43.970;22.868;2023-07-29T01:41:02;101100.25;;;19.51;100.00
63808;BME280;49961;43.970;22.868;2023-07-29T01:42:03;101073.97;;;19.40;100.00
63808;BME280;49961;43.970;22.868;2023-07-29T01:43:04;101100.06;;;19.55;100.00
63808;BME280;49961;43.970;22.868;2023-07-29T01:44:06;101098.81;;;19.56;100.00
63808;BME280;49961;43.970;22.868;2023-07-29T01:45:06;101104.44;;;19.56;100.00
63808;BME280;49961;43.970;22.868;2023-07-29T01:46:07;101107.84;;;19.60;100.00
63808;BME280;49961;43.970;22.868;2023-07-29T01:47:08;101109.09;;;19.59;100.00
63808;BME280;49961;43.970;22.868;2023-07-29T01:48:08;101116.25;;;19.60;100.00
63808;BME280;49961;43.970;22.868;2023-07-29T01:49:09;101116.16;;;19.54;100.00
63808;BME280;49961;43.970;22.868;2023-07-29T01:50:09;101118.47;;;19.56;100.00
63808;BME280;49961;43.970;22.868;2023-07-29T01:51:11;101121.28;;;19.56;100.00
63808;BME280;49961;43.970;22.868;2023-07-29T01:52:12;101120.03;;;19.57;100.00
63808;BME280;49961;43.970;22.868;2023-07-29T01:53:12;101098.28;;;19.43;100.00
63808;BME280;49961;43.970;22.868;2023-07-29T01:54:13;101112.84;;;19.56;100.00
63808;BME280;49961;43.970;22.868;2023-07-29T01:55:13;101124.09;;;19.56;100.00
63808;BME280;49961;43.970;22.868;2023-07-29T01:56:14;101125.38;;;19.55;100.00
63808;BME280;49961;43.970;22.868;2023-07-29T01:57:14;101122.38;;;19.58;100.00
63808;BME280;49961;43.970;22.868;2023-07-29T01:58:14;101129.53;;;19.59;100.00
63808;BME280;49961;43.970;22.868;2023-07-29T01:59:15;101074.50;;;19.29;100.00
63808;BME280;49961;43.970;22.868;2023-07-29T02:00:16;101085.28;;;19.31;100.00
63808;BME280;49961;43.970;22.868;2023-07-29T02:01:17;101130.50;;;19.56;100.00
63808;BME280;49961;43.970;22.868;2023-07-29T02:02:18;101127.88;;;19.53;100.00
63808;BME280;49961;43.970;22.868;2023-07-29T02:03:18;101118.66;;;19.52;100.00
63808;BME280;49961;43.970;22.868;2023-07-29T02:04:19;101127.09;;;19.52;100.00
63808;BME280;49961;43.970;22.868;2023-07-29T02:05:19;101125.06;;;19.53;100.00
63808;BME280;49961;43.970;22.868;2023-07-29T02:06:20;101118.75;;;19.43;100.00
63808;BME280;49961;43.970;22.868;2023-07-29T02:07:21;101099.03;;;19.29;100.00
63808;BME280;49961;43.970;22.868;2023-07-29T02:08:21;101124.19;;;19.47;100.00
63808;BME280;49961;43.970;22.868;2023-07-29T02:09:22;101121.06;;;19.45;100.00
63808;BME280;49961;43.970;22.868;2023-07-29T02:10:22;101122.81;;;19.42;100.00
63808;BME280;49961;43.970;22.868;2023-07-29T02:11:23;101118.94;;;19.40;100.00
63808;BME280;49961;43.970;22.868;2023-07-29T02:12:27;101067.16;;;19.08;100.00
63808;BME280;49961;43.970;22.868;2023-07-29T02:13:28;101128.38;;;19.51;100.00
63808;BME280;49961;43.970;22.868;2023-07-29T02:14:28;101067.28;;;19.14;100.00
63808;BME280;49961;43.970;22.868;2023-07-29T02:15:29;101106.63;;;19.37;100.00
63808;BME280;49961;43.970;22.868;2023-07-29T02:16:29;101123.31;;;19.55;100.00
63808;BME280;49961;43.970;22.868;2023-07-29T02:17:30;101024.69;;;18.92;100.00
63808;BME280;49961;43.970;22.868;2023-07-29T02:18:30;101078.59;;;19.28;100.00
63808;BME280;49961;43.970;22.868;2023-07-29T02:19:31;101111.00;;;19.53;100.00
63808;BME280;49961;43.970;22.868;2023-07-29T02:20:31;101117.13;;;19.51;100.00
63808;BME280;49961;43.970;22.868;2023-07-29T02:21:32;101123.22;;;19.50;100.00
63808;BME280;49961;43.970;22.868;2023-07-29T02:22:32;101125.72;;;19.48;100.00
63808;BME280;49961;43.970;22.868;2023-07-29T02:23:32;101117.47;;;19.44;100.00
63808;BME280;49961;43.970;22.868;2023-07-29T02:24:33;101122.50;;;19.40;100.00
63808;BME280;49961;43.970;22.868;2023-07-29T02:25:35;101128.03;;;19.35;100.00
63808;BME280;49961;43.970;22.868;2023-07-29T02:26:36;101123.06;;;19.30;100.00
63808;BME280;49961;43.970;22.868;2023-07-29T02:27:37;101016.22;;;18.54;100.00
63808;BME280;49961;43.970;22.868;2023-07-29T02:28:37;101130.13;;;19.25;100.00
63808;BME280;49961;43.970;22.868;2023-07-29T02:29:37;101127.00;;;19.23;100.00
63808;BME280;49961;43.970;22.868;2023-07-29T02:30:41;101062.28;;;18.71;100.00
63808;BME280;49961;43.970;22.868;2023-07-29T02:31:41;101143.13;;;19.14;100.00
63808;BME280;49961;43.970;22.868;2023-07-29T02:32:44;101122.09;;;19.09;100.00
63808;BME280;49961;43.970;22.868;2023-07-29T02:33:44;101140.34;;;19.14;100.00
63808;BME280;49961;43.970;22.868;2023-07-29T02:34:45;101133.50;;;19.06;100.00
63808;BME280;49961;43.970;22.868;2023-07-29T02:35:45;101081.09;;;18.79;100.00
63808;BME280;49961;43.970;22.868;2023-07-29T02:36:45;101139.06;;;19.15;100.00
63808;BME280;49961;43.970;22.868;2023-07-29T02:37:46;101109.53;;;18.96;100.00
63808;BME280;49961;43.970;22.868;2023-07-29T02:38:46;101148.75;;;19.14;100.00
63808;BME280;49961;43.970;22.868;2023-07-29T02:39:47;101141.00;;;19.09;100.00
63808;BME280;49961;43.970;22.868;2023-07-29T02:40:47;101148.28;;;19.15;100.00
63808;BME280;49961;43.970;22.868;2023-07-29T02:41:47;101150.59;;;19.17;100.00
63808;BME280;49961;43.970;22.868;2023-07-29T02:42:48;101077.50;;;18.55;100.00
63808;BME280;49961;43.970;22.868;2023-07-29T02:43:49;101166.09;;;19.12;100.00
63808;BME280;49961;43.970;22.868;2023-07-29T02:44:50;101165.00;;;19.10;100.00
63808;BME280;49961;43.970;22.868;2023-07-29T02:45:50;101160.34;;;19.07;100.00
63808;BME280;49961;43.970;22.868;2023-07-29T02:46:50;101168.75;;;19.07;100.00
63808;BME280;49961;43.970;22.868;2023-07-29T02:47:52;101076.28;;;18.47;100.00
63808;BME280;49961;43.970;22.868;2023-07-29T02:48:53;101086.81;;;18.61;100.00
63808;BME280;49961;43.970;22.868;2023-07-29T02:49:54;101163.75;;;19.11;100.00
63808;BME280;49961;43.970;22.868;2023-07-29T02:50:55;101159.22;;;19.13;100.00
63808;BME280;49961;43.970;22.868;2023-07-29T02:51:55;101102.78;;;18.79;100.00
63808;BME280;49961;43.970;22.868;2023-07-29T02:52:56;101141.19;;;19.05;100.00
63808;BME280;49961;43.970;22.868;2023-07-29T02:53:56;101159.22;;;19.13;100.00
63808;BME280;49961;43.970;22.868;2023-07-29T02:54:57;101153.91;;;19.15;100.00
63808;BME280;49961;43.970;22.868;2023-07-29T02:55:57;101144.75;;;19.06;100.00
63808;BME280;49961;43.970;22.868;2023-07-29T02:56:57;101148.94;;;19.10;100.00
63808;BME280;49961;43.970;22.868;2023-07-29T02:57:58;101146.25;;;19.16;100.00
63808;BME280;49961;43.970;22.868;2023-07-29T02:58:58;101153.91;;;19.15;100.00
63808;BME280;49961;43.970;22.868;2023-07-29T02:59:59;101152.84;;;19.13;100.00
63808;BME280;49961;43.970;22.868;2023-07-29T03:01:01;101076.38;;;18.62;100.00
63808;BME280;49961;43.970;22.868;2023-07-29T03:02:03;101150.69;;;19.08;100.00
63808;BME280;49961;43.970;22.868;2023-07-29T03:03:03;101153.31;;;19.11;100.00
63808;BME280;49961;43.970;22.868;2023-07-29T03:04:04;101146.47;;;19.03;100.00
63808;BME280;49961;43.970;22.868;2023-07-29T03:05:04;101060.09;;;18.42;100.00
63808;BME280;49961;43.970;22.868;2023-07-29T03:06:07;101153.66;;;19.04;100.00
63808;BME280;49961;43.970;22.868;2023-07-29T03:07:07;101150.06;;;19.04;100.00
63808;BME280;49961;43.970;22.868;2023-07-29T03:08:08;101153.16;;;19.06;100.00
63808;BME280;49961;43.970;22.868;2023-07-29T03:09:08;101124.59;;;18.84;100.00
63808;BME280;49961;43.970;22.868;2023-07-29T03:10:09;101145.41;;;19.01;100.00
63808;BME280;49961;43.970;22.868;2023-07-29T03:11:13;101158.78;;;19.06;100.00
63808;BME280;49961;43.970;22.868;2023-07-29T03:12:13;101127.69;;;18.86;100.00
63808;BME280;49961;43.970;22.868;2023-07-29T03:13:14;101112.34;;;18.72;100.00
63808;BME280;49961;43.970;22.868;2023-07-29T03:14:14;101158.03;;;19.05;100.00
63808;BME280;49961;43.970;22.868;2023-07-29T03:15:14;101152.75;;;18.98;100.00
63808;BME280;49961;43.970;22.868;2023-07-29T03:16:16;100984.13;;;17.90;100.00
63808;BME280;49961;43.970;22.868;2023-07-29T03:17:17;101146.84;;;18.96;100.00
63808;BME280;49961;43.970;22.868;2023-07-29T03:18:17;101149.19;;;18.98;100.00
63808;BME280;49961;43.970;22.868;2023-07-29T03:19:17;101143.84;;;19.00;100.00
63808;BME280;49961;43.970;22.868;2023-07-29T03:20:19;101144.31;;;18.98;100.00
63808;BME280;49961;43.970;22.868;2023-07-29T03:21:20;101140.75;;;18.98;100.00
63808;BME280;49961;43.970;22.868;2023-07-29T03:22:20;101130.47;;;18.95;100.00
63808;BME280;49961;43.970;22.868;2023-07-29T03:23:20;101136.38;;;18.97;100.00
63808;BME280;49961;43.970;22.868;2023-07-29T03:24:21;101142.97;;;18.94;100.00
63808;BME280;49961;43.970;22.868;2023-07-29T03:25:21;101145.94;;;18.90;100.00
63808;BME280;49961;43.970;22.868;2023-07-29T03:26:22;101135.47;;;18.91;100.00
63808;BME280;49961;43.970;22.868;2023-07-29T03:27:22;101140.81;;;18.89;100.00
63808;BME280;49961;43.970;22.868;2023-07-29T03:28:24;101144.09;;;18.87;100.00
63808;BME280;49961;43.970;22.868;2023-07-29T03:29:25;101050.78;;;18.27;100.00
63808;BME280;49961;43.970;22.868;2023-07-29T03:30:25;101152.50;;;18.87;100.00
63808;BME280;49961;43.970;22.868;2023-07-29T03:31:26;101152.78;;;18.89;100.00
63808;BME280;49961;43.970;22.868;2023-07-29T03:32:26;101155.13;;;18.91;100.00
63808;BME280;49961;43.970;22.868;2023-07-29T03:33:26;101158.25;;;18.93;100.00
63808;BME280;49961;43.970;22.868;2023-07-29T03:34:27;101152.31;;;18.91;100.00
63808;BME280;49961;43.970;22.868;2023-07-29T03:35:27;101174.78;;;18.91;100.00
63808;BME280;49961;43.970;22.868;2023-07-29T03:36:28;101107.59;;;18.55;100.00
63808;BME280;49961;43.970;22.868;2023-07-29T03:37:28;101105.75;;;18.52;100.00
63808;BME280;49961;43.970;22.868;2023-07-29T03:38:28;101162.28;;;18.92;100.00
63808;BME280;49961;43.970;22.868;2023-07-29T03:39:29;101165.91;;;18.92;100.00
63808;BME280;49961;43.970;22.868;2023-07-29T03:40:29;101169.97;;;18.91;100.00
63808;BME280;49961;43.970;22.868;2023-07-29T03:41:30;101169.78;;;18.95;100.00
63808;BME280;49961;43.970;22.868;2023-07-29T03:42:30;101164.97;;;18.95;100.00
63808;BME280;49961;43.970;22.868;2023-07-29T03:43:30;101171.66;;;18.98;100.00
63808;BME280;49961;43.970;22.868;2023-07-29T03:44:31;101170.38;;;18.99;100.00
63808;BME280;49961;43.970;22.868;2023-07-29T03:45:33;101169.78;;;18.95;100.00
63808;BME280;49961;43.970;22.868;2023-07-29T03:46:33;101117.09;;;18.57;100.00
63808;BME280;49961;43.970;22.868;2023-07-29T03:47:34;101169.34;;;18.87;100.00
63808;BME280;49961;43.970;22.868;2023-07-29T03:48:34;101170.19;;;18.79;100.00
63808;BME280;49961;43.970;22.868;2023-07-29T03:49:35;101176.31;;;18.68;100.00
63808;BME280;49961;43.970;22.868;2023-07-29T03:50:36;101174.47;;;18.65;100.00
63808;BME280;49961;43.970;22.868;2023-07-29T03:51:36;101179.47;;;18.61;100.00
63808;BME280;49961;43.970;22.868;2023-07-29T03:52:37;101184.47;;;18.57;100.00
63808;BME280;49961;43.970;22.868;2023-07-29T03:53:37;101171.06;;;18.52;100.00
63808;BME280;49961;43.970;22.868;2023-07-29T03:54:38;101148.97;;;18.45;100.00
63808;BME280;49961;43.970;22.868;2023-07-29T03:55:38;101171.81;;;18.62;100.00
63808;BME280;49961;43.970;22.868;2023-07-29T03:56:38;101171.81;;;18.62;100.00
63808;BME280;49961;43.970;22.868;2023-07-29T03:57:39;101169.03;;;18.62;100.00
63808;BME280;49961;43.970;22.868;2023-07-29T03:58:39;101173.38;;;18.63;100.00
63808;BME280;49961;43.970;22.868;2023-07-29T03:59:40;101168.84;;;18.65;100.00
63808;BME280;49961;43.970;22.868;2023-07-29T04:00:40;101170.41;;;18.66;100.00
63808;BME280;49961;43.970;22.868;2023-07-29T04:01:40;101164.78;;;18.66;100.00
63808;BME280;49961;43.970;22.868;2023-07-29T04:02:42;101166.34;;;18.67;100.00
63808;BME280;49961;43.970;22.868;2023-07-29T04:03:42;101167.88;;;18.68;100.00
63808;BME280;49961;43.970;22.868;2023-07-29T04:04:43;101171.78;;;18.71;100.00
63808;BME280;49961;43.970;22.868;2023-07-29T04:05:47;101133.94;;;18.57;100.00
63808;BME280;49961;43.970;22.868;2023-07-29T04:06:48;101159.88;;;18.76;100.00
63808;BME280;49961;43.970;22.868;2023-07-29T04:07:48;101163.78;;;18.78;100.00
63808;BME280;49961;43.970;22.868;2023-07-29T04:08:49;101164.69;;;18.84;100.00
63808;BME280;49961;43.970;22.868;2023-07-29T04:09:49;101085.06;;;18.31;100.00
63808;BME280;49961;43.970;22.868;2023-07-29T04:10:50;101126.91;;;18.62;100.00
63808;BME280;49961;43.970;22.868;2023-07-29T04:11:51;101184.44;;;18.99;100.00
63808;BME280;49961;43.970;22.868;2023-07-29T04:12:51;101101.91;;;18.40;100.00
63808;BME280;49961;43.970;22.868;2023-07-29T04:13:52;101184.53;;;19.04;100.00
63808;BME280;49961;43.970;22.868;2023-07-29T04:14:52;101193.28;;;19.06;100.00
63808;BME280;49961;43.970;22.868;2023-07-29T04:15:53;101094.38;;;18.46;100.00
63808;BME280;49961;43.970;22.868;2023-07-29T04:16:53;101184.38;;;19.08;100.00
63808;BME280;49961;43.970;22.868;2023-07-29T04:17:53;101183.88;;;19.09;100.00
63808;BME280;49961;43.970;22.868;2023-07-29T04:18:54;101186.03;;;19.14;100.00
63808;BME280;49961;43.970;22.868;2023-07-29T04:19:54;101185.09;;;19.17;100.00
63808;BME280;49961;43.970;22.868;2023-07-29T04:20:55;101182.09;;;19.21;100.00
63808;BME280;49961;43.970;22.868;2023-07-29T04:21:55;101177.59;;;19.23;100.00
63808;BME280;49961;43.970;22.868;2023-07-29T04:22:55;101179.16;;;19.24;100.00
63808;BME280;49961;43.970;22.868;2023-07-29T04:23:56;101184.09;;;19.29;100.00
63808;BME280;49961;43.970;22.868;2023-07-29T04:24:56;101182.97;;;19.36;100.00
63808;BME280;49961;43.970;22.868;2023-07-29T04:25:57;101172.81;;;19.38;100.00
63808;BME280;49961;43.970;22.868;2023-07-29T04:26:57;101174.34;;;19.39;100.00
63808;BME280;49961;43.970;22.868;2023-07-29T04:27:58;101172.16;;;19.43;100.00
63808;BME280;49961;43.970;22.868;2023-07-29T04:28:58;101175.09;;;19.49;100.00
63808;BME280;49961;43.970;22.868;2023-07-29T04:29:58;101140.53;;;19.34;100.00
63808;BME280;49961;43.970;22.868;2023-07-29T04:30:59;101162.50;;;19.59;100.00
63808;BME280;49961;43.970;22.868;2023-07-29T04:32:00;101169.69;;;19.60;100.00
63808;BME280;49961;43.970;22.868;2023-07-29T04:33:01;101166.19;;;19.65;100.00
63808;BME280;49961;43.970;22.868;2023-07-29T04:34:01;101176.47;;;19.68;100.00
63808;BME280;49961;43.970;22.868;2023-07-29T04:35:02;101179.09;;;19.71;100.00
63808;BME280;49961;43.970;22.868;2023-07-29T04:36:03;101175.03;;;19.72;100.00
63808;BME280;49961;43.970;22.868;2023-07-29T04:37:04;101168.16;;;19.73;100.00
63808;BME280;49961;43.970;22.868;2023-07-29T04:38:05;101177.47;;;19.79;100.00
63808;BME280;49961;43.970;22.868;2023-07-29T04:39:05;101175.25;;;19.83;100.00
63808;BME280;49961;43.970;22.868;2023-07-29T04:40:06;101176.00;;;19.84;100.00
63808;BME280;49961;43.970;22.868;2023-07-29T04:41:07;101170.69;;;19.86;100.00
63808;BME280;49961;43.970;22.868;2023-07-29T04:42:09;101161.78;;;19.87;100.00
63808;BME280;49961;43.970;22.868;2023-07-29T04:43:09;101073.09;;;19.34;100.00
63808;BME280;49961;43.970;22.868;2023-07-29T04:44:10;101102.00;;;19.49;100.00
63808;BME280;49961;43.970;22.868;2023-07-29T04:45:10;101130.34;;;19.74;100.00
63808;BME280;49961;43.970;22.868;2023-07-29T04:46:10;101170.03;;;20.05;100.00
63808;BME280;49961;43.970;22.868;2023-07-29T04:47:11;101113.47;;;19.74;100.00
63808;BME280;49961;43.970;22.868;2023-07-29T04:48:11;101175.28;;;20.12;100.00
63808;BME280;49961;43.970;22.868;2023-07-29T04:49:12;101171.53;;;20.15;100.00
63808;BME280;49961;43.970;22.868;2023-07-29T04:50:12;101170.84;;;20.20;100.00
63808;BME280;49961;43.970;22.868;2023-07-29T04:51:13;101138.50;;;20.01;100.00
63808;BME280;49961;43.970;22.868;2023-07-29T04:52:13;101175.91;;;20.31;100.00
63808;BME280;49961;43.970;22.868;2023-07-29T04:53:14;101168.81;;;20.35;100.00
63808;BME280;49961;43.970;22.868;2023-07-29T04:54:15;101171.72;;;20.41;100.00
63808;BME280;49961;43.970;22.868;2023-07-29T04:55:15;101166.16;;;20.46;100.00
63808;BME280;49961;43.970;22.868;2023-07-29T04:56:16;101090.38;;;19.99;100.00
63808;BME280;49961;43.970;22.868;2023-07-29T04:57:16;101063.50;;;19.84;100.00
63808;BME280;49961;43.970;22.868;2023-07-29T04:58:17;101165.75;;;20.53;100.00
63808;BME280;49961;43.970;22.868;2023-07-29T04:59:17;101114.66;;;20.26;100.00
63808;BME280;49961;43.970;22.868;2023-07-29T05:00:18;101170.31;;;20.65;100.00
63808;BME280;49961;43.970;22.868;2023-07-29T05:01:18;101171.38;;;20.68;100.00
63808;BME280;49961;43.970;22.868;2023-07-29T05:02:18;101167.88;;;20.73;100.00
63808;BME280;49961;43.970;22.868;2023-07-29T05:03:19;101173.31;;;20.76;100.00
63808;BME280;49961;43.970;22.868;2023-07-29T05:04:19;101173.88;;;20.80;100.00
63808;BME280;49961;43.970;22.868;2023-07-29T05:05:20;101168.53;;;20.82;100.00
63808;BME280;49961;43.970;22.868;2023-07-29T05:06:20;101176.28;;;20.87;100.00
63808;BME280;49961;43.970;22.868;2023-07-29T05:07:21;101173.06;;;20.94;100.00
63808;BME280;49961;43.970;22.868;2023-07-29T05:08:21;101106.94;;;20.55;100.00
63808;BME280;49961;43.970;22.868;2023-07-29T05:09:22;101143.66;;;20.81;100.00
63808;BME280;49961;43.970;22.868;2023-07-29T05:10:22;101176.63;;;21.09;100.00
63808;BME280;49961;43.970;22.868;2023-07-29T05:11:23;101176.72;;;21.15;100.00
63808;BME280;49961;43.970;22.868;2023-07-29T05:12:25;101177.06;;;21.22;100.00
63808;BME280;49961;43.970;22.868;2023-07-29T05:13:26;101149.13;;;21.04;100.00
63808;BME280;49961;43.970;22.868;2023-07-29T05:14:26;101173.81;;;21.29;100.00
63808;BME280;49961;43.970;22.868;2023-07-29T05:15:27;101168.41;;;21.26;100.00
63808;BME280;49961;43.970;22.868;2023-07-29T05:16:27;101120.59;;;20.97;100.00
63808;BME280;49961;43.970;22.868;2023-07-29T05:17:27;101179.06;;;21.36;100.00
63808;BME280;49961;43.970;22.868;2023-07-29T05:18:28;101133.09;;;21.10;100.00
63808;BME280;49961;43.970;22.868;2023-07-29T05:19:28;101177.66;;;21.46;100.00